Time;durP1;ratioP1;P1;durP2;ratioP2;P2;SDS_P1;SDS_P2;PMS_P1;PMS_P2;Temp;Humidity;BMP_temperature;BMP_pressure;BME280_temperature;BME280_humidity;BME280_pressure;Samples;Min_cycle;Max_cycle;Signal;HPM_P1;HPM_P2
2022/07/07 00:01:49;;;;;;;13.30;5.68;;;;;;;22.14;100.00;101876.56;5082409;28;20059;-49
2022/07/07 00:04:15;;;;;;;13.63;6.00;;;;;;;22.28;100.00;101868.88;5075533;28;20036;-50
2022/07/07 00:06:41;;;;;;;;;;;;;;;22.20;100.00;101854.59;5083852;28;20044;-50
2022/07/07 00:09:06;;;;;;;14.07;5.27;;;;;;;22.29;100.00;101852.28;5079684;28;19920;-49
2022/07/07 00:11:32;;;;;;;14.05;6.10;;;;;;;22.24;100.00;101843.22;5083552;28;20096;-51
2022/07/07 00:13:58;;;;;;;11.77;5.88;;;;;;;22.24;100.00;101852.19;5075420;28;20044;-47
2022/07/07 00:16:24;;;;;;;13.07;5.60;;;;;;;22.47;100.00;101843.03;5078167;28;20032;-47
2022/07/07 00:18:50;;;;;;;16.02;5.53;;;;;;;22.34;100.00;101841.47;5082814;28;20044;-50
2022/07/07 00:21:16;;;;;;;12.37;5.93;;;;;;;22.46;100.00;101848.69;5078597;28;20025;-50
2022/07/07 00:23:41;;;;;;;9.18;4.93;;;;;;;22.23;100.00;101839.66;5077366;28;20389;-48
2022/07/07 00:26:08;;;;;;;20.27;5.30;;;;;;;22.37;100.00;101845.56;5075761;28;20048;-52
2022/07/07 00:28:33;;;;;;;11.43;5.53;;;;;;;22.22;100.00;101842.63;5079052;28;20037;-50
2022/07/07 00:30:59;;;;;;;11.48;4.68;;;;;;;22.31;100.00;101833.78;5077194;28;20052;-49
2022/07/07 00:33:25;;;;;;;10.90;5.50;;;;;;;22.05;100.00;101827.13;5075104;28;20032;-50
2022/07/07 00:35:51;;;;;;;13.80;5.32;;;;;;;22.27;100.00;101826.34;5078843;28;20039;-47
2022/07/07 00:38:16;;;;;;;9.45;5.93;;;;;;;22.34;100.00;101821.53;5082936;28;20051;-47
2022/07/07 00:40:42;;;;;;;10.38;5.00;;;;;;;22.52;100.00;101812.28;5079476;28;20055;-48
2022/07/07 00:43:07;;;;;;;14.40;5.80;;;;;;;22.70;100.00;101816.59;5078986;28;20048;-46
2022/07/07 00:45:33;;;;;;;14.88;6.35;;;;;;;22.57;100.00;101819.69;5075908;28;20032;-50
2022/07/07 00:47:58;;;;;;;13.47;5.90;;;;;;;22.80;100.00;101818.63;5080670;28;20040;-49
2022/07/07 00:50:24;;;;;;;12.82;5.18;;;;;;;23.02;100.00;101812.34;5074740;28;20179;-52
2022/07/07 00:52:50;;;;;;;12.68;5.80;;;;;;;22.67;100.00;101808.94;5076104;28;20033;-51
2022/07/07 00:55:16;;;;;;;9.88;5.30;;;;;;;22.62;100.00;101812.41;5078697;28;20037;-53
2022/07/07 00:57:41;;;;;;;15.63;7.03;;;;;;;22.90;100.00;101807.84;5081946;28;20044;-47
2022/07/07 01:00:09;;;;;;;;;;;;;;;22.86;100.00;101805.88;5074846;28;20066;-49
2022/07/07 01:02:35;;;;;;;21.40;8.03;;;;;;;22.95;100.00;101808.97;5076122;28;19975;-50
2022/07/07 01:05:04;;;;;;;;;;;;;;;22.76;100.00;101818.31;5082374;28;20025;-47
2022/07/07 01:07:30;;;;;;;12.40;4.97;;;;;;;22.81;100.00;101809.38;5078921;28;19912;-50
2022/07/07 01:09:59;;;;;;;17.58;5.18;;;;;;;22.41;100.00;101805.84;5075743;28;20033;-49
2022/07/07 01:12:32;;;;;;;10.50;5.37;;;;;;;22.80;100.00;101802.28;5076704;28;20033;-52
2022/07/07 01:14:57;;;;;;;10.33;4.33;;;;;;;22.75;100.00;101810.41;5075636;28;20041;-50
2022/07/07 01:17:23;;;;;;;9.40;3.90;;;;;;;23.14;100.00;101801.28;5075678;28;20036;-49
2022/07/07 01:19:49;;;;;;;14.25;4.80;;;;;;;22.89;100.00;101791.75;5073229;28;20097;-50
2022/07/07 01:22:17;;;;;;;17.10;6.22;;;;;;;22.57;100.00;101803.34;5076498;28;20063;-55
2022/07/07 01:24:43;;;;;;;11.73;5.07;;;;;;;22.20;100.00;101794.69;5078544;28;20035;-49
2022/07/07 01:27:10;;;;;;;;;;;;;;;22.98;100.00;101787.47;5079195;28;20039;-48
2022/07/07 01:29:46;;;;;;;17.30;6.40;;;;;;;22.72;100.00;101789.91;5078072;28;19912;-48
2022/07/07 01:32:12;;;;;;;14.73;7.10;;;;;;;23.01;100.00;101788.88;5074236;28;20058;-48
2022/07/07 01:34:39;;;;;;;;;;;;;;;22.63;100.00;101794.16;5077838;28;20032;-50
2022/07/07 01:37:05;;;;;;;12.73;6.23;;;;;;;22.71;100.00;101777.34;5076622;28;20535;-50
2022/07/07 01:39:31;;;;;;;;;;;;;;;22.80;100.00;101782.34;5074750;28;20124;-51
2022/07/07 01:41:57;;;;;;;9.47;3.90;;;;;;;22.87;100.00;101777.53;5073408;28;19916;-52
2022/07/07 01:44:22;;;;;;;8.30;4.00;;;;;;;22.67;100.00;101780.84;5074510;28;20044;-48
2022/07/07 01:46:48;;;;;;;8.32;3.20;;;;;;;22.89;100.00;101772.66;5074746;28;20490;-48
2022/07/07 01:49:13;;;;;;;8.07;2.65;;;;;;;22.74;100.00;101768.66;5075151;28;20048;-51
2022/07/07 01:51:39;;;;;;;3.70;1.80;;;;;;;23.20;100.00;101772.94;5081236;28;20096;-48
2022/07/07 01:54:05;;;;;;;4.10;1.80;;;;;;;23.41;100.00;101768.56;5077886;28;20038;-51
2022/07/07 01:56:30;;;;;;;4.82;1.92;;;;;;;22.84;100.00;101776.13;5075974;28;20055;-48
2022/07/07 01:58:56;;;;;;;4.43;2.13;;;;;;;23.15;100.00;101772.91;5076422;28;20033;-49
2022/07/07 02:01:23;;;;;;;6.00;2.00;;;;;;;22.99;100.00;101778.19;5086993;28;20269;-48
2022/07/07 02:03:49;;;;;;;5.80;1.50;;;;;;;22.78;100.00;101771.72;5076560;28;20037;-47
2022/07/07 02:06:15;;;;;;;4.72;1.80;;;;;;;22.69;100.00;101773.22;5077240;28;20101;-54
2022/07/07 02:08:40;;;;;;;6.53;2.35;;;;;;;22.70;100.00;101769.41;5078962;28;20067;-48
2022/07/07 02:11:15;;;;;;;5.15;1.75;;;;;;;23.26;100.00;101769.22;5080087;28;20095;-47
2022/07/07 02:13:51;;;;;;;5.27;2.10;;;;;;;22.48;100.00;101768.38;5078498;28;20052;-47
2022/07/07 02:16:19;;;;;;;3.67;1.80;;;;;;;22.67;100.00;101767.22;5079050;28;20043;-47
2022/07/07 02:18:46;;;;;;;4.53;1.90;;;;;;;22.92;100.00;101772.94;5078649;28;20236;-49
2022/07/07 02:21:13;;;;;;;5.13;1.50;;;;;;;22.91;100.00;101779.47;5075974;28;20037;-48
2022/07/07 02:23:42;;;;;;;3.27;1.20;;;;;;;22.84;100.00;101778.88;5074263;28;20043;-46
2022/07/07 02:26:08;;;;;;;4.60;1.70;;;;;;;22.94;100.00;101788.22;5081844;28;20096;-49
2022/07/07 02:28:34;;;;;;;3.53;1.13;;;;;;;23.00;100.00;101790.75;5078581;28;20047;-46
2022/07/07 02:31:00;;;;;;;5.05;1.85;;;;;;;22.31;100.00;101805.69;5082081;28;20032;-47
2022/07/07 02:33:26;;;;;;;3.75;1.55;;;;;;;22.45;100.00;101785.19;5079979;28;20024;-46
2022/07/07 02:35:53;;;;;;;6.70;2.38;;;;;;;21.98;100.00;101786.44;5081380;28;20047;-52
2022/07/07 02:38:19;;;;;;;3.67;2.20;;;;;;;21.92;100.00;101788.28;5085677;28;20059;-52
2022/07/07 02:40:44;;;;;;;3.58;1.75;;;;;;;21.71;100.00;101786.31;5081473;28;20044;-50
2022/07/07 02:43:12;;;;;;;8.30;2.42;;;;;;;22.08;100.00;101785.78;5079201;28;20032;-46
2022/07/07 02:45:40;;;;;;;5.37;1.93;;;;;;;22.07;100.00;101781.41;5075545;28;20131;-47
2022/07/07 02:48:07;;;;;;;7.67;2.00;;;;;;;21.87;100.00;101781.94;5080425;28;20059;-50
2022/07/07 02:50:33;;;;;;;5.73;2.17;;;;;;;21.79;100.00;101780.44;5080682;28;20033;-52
2022/07/07 02:52:59;;;;;;;4.55;2.47;;;;;;;22.32;100.00;101772.78;5074535;28;20025;-49
2022/07/07 02:55:24;;;;;;;4.90;2.25;;;;;;;22.32;100.00;101774.66;5083654;28;20036;-48
2022/07/07 02:57:51;;;;;;;11.95;2.47;;;;;;;21.81;100.00;101777.50;5078820;28;20029;-50
2022/07/07 03:00:17;;;;;;;6.03;2.25;;;;;;;22.00;100.00;101775.31;5077412;28;20071;-50
2022/07/07 03:02:43;;;;;;;8.32;2.60;;;;;;;21.80;100.00;101773.94;5075307;28;20043;-48
2022/07/07 03:05:11;;;;;;;4.53;2.35;;;;;;;21.61;100.00;101776.06;5082457;28;20041;-47
2022/07/07 03:07:36;;;;;;;6.70;2.37;;;;;;;21.59;100.00;101784.47;5076301;28;20041;-49
2022/07/07 03:10:04;;;;;;;3.17;2.17;;;;;;;21.62;100.00;101773.06;5077349;28;20034;-51
2022/07/07 03:12:29;;;;;;;6.33;2.77;;;;;;;21.33;100.00;101770.41;5080311;28;20090;-49
2022/07/07 03:14:55;;;;;;;3.33;2.10;;;;;;;21.22;100.00;101773.22;5076730;28;20029;-50
2022/07/07 03:17:20;;;;;;;4.57;2.53;;;;;;;21.60;100.00;101775.22;5081086;28;20037;-52
2022/07/07 03:19:46;;;;;;;6.17;3.17;;;;;;;21.88;100.00;101770.78;5081435;28;20297;-50
2022/07/07 03:22:11;;;;;;;5.00;3.03;;;;;;;21.76;100.00;101772.78;5080438;28;20046;-48
2022/07/07 03:24:37;;;;;;;7.68;2.90;;;;;;;21.68;100.00;101768.56;5076461;28;20065;-49
2022/07/07 03:27:04;;;;;;;14.17;4.03;;;;;;;21.65;100.00;101770.97;5074472;28;20060;-47
2022/07/07 03:29:30;;;;;;;;;;;;;;;21.75;100.00;101766.50;5082510;28;20029;-49
2022/07/07 03:31:55;;;;;;;7.47;3.47;;;;;;;21.52;100.00;101769.34;5079621;28;19976;-50
2022/07/07 03:34:21;;;;;;;6.40;3.03;;;;;;;21.57;100.00;101764.81;5076676;28;20061;-48
2022/07/07 03:36:47;;;;;;;8.63;3.17;;;;;;;21.52;100.00;101753.03;5080399;28;20037;-49
2022/07/07 03:39:12;;;;;;;12.50;3.67;;;;;;;21.52;100.00;101756.59;5082352;28;20048;-47
2022/07/07 03:41:38;;;;;;;7.57;3.45;;;;;;;21.33;100.00;101764.13;5080757;28;20056;-50
2022/07/07 03:44:03;;;;;;;6.03;3.33;;;;;;;20.97;100.00;101763.50;5078996;28;20041;-50
2022/07/07 03:46:29;;;;;;;10.20;2.80;;;;;;;20.92;100.00;101765.06;5081219;28;20287;-50
2022/07/07 03:48:55;;;;;;;6.40;3.42;;;;;;;20.95;100.00;101752.88;5080334;28;20052;-51
2022/07/07 03:51:20;;;;;;;9.30;3.58;;;;;;;20.78;100.00;101758.22;5085063;28;20043;-47
2022/07/07 03:53:46;;;;;;;6.45;3.38;;;;;;;20.86;100.00;101760.59;5078748;28;20123;-49
2022/07/07 03:56:11;;;;;;;9.48;4.28;;;;;;;20.85;100.00;101772.53;5089103;28;20036;-49
2022/07/07 03:58:37;;;;;;;6.57;3.70;;;;;;;20.91;100.00;101762.59;5082935;28;20041;-49
2022/07/07 04:01:02;;;;;;;8.37;4.13;;;;;;;20.84;100.00;101757.28;5087650;28;20490;-50
2022/07/07 04:03:28;;;;;;;10.05;4.07;;;;;;;21.11;100.00;101761.31;5087455;28;20282;-53
2022/07/07 04:05:53;;;;;;;9.43;4.18;;;;;;;21.18;100.00;101768.25;5087338;28;20095;-49
2022/07/07 04:08:19;;;;;;;10.03;4.13;;;;;;;21.08;100.00;101759.91;5080224;28;20049;-47
2022/07/07 04:10:44;;;;;;;19.55;3.92;;;;;;;21.39;100.00;101767.78;5082248;28;20040;-49
2022/07/07 04:13:10;;;;;;;6.00;3.03;;;;;;;21.70;100.00;101765.63;5078559;28;20044;-53
2022/07/07 04:15:35;;;;;;;11.63;4.70;;;;;;;21.51;100.00;101764.97;5078693;28;20101;-51
2022/07/07 04:18:02;;;;;;;13.02;4.03;;;;;;;21.59;100.00;101776.28;5080966;28;20323;-49
2022/07/07 04:20:29;;;;;;;11.33;2.80;;;;;;;22.24;100.00;101780.53;5090296;28;20088;-47
2022/07/07 04:22:56;;;;;;;8.50;2.90;;;;;;;22.02;100.00;101778.59;5082718;28;20028;-49
2022/07/07 04:25:21;;;;;;;;;;;;;;;22.14;100.00;101784.75;5080538;28;20036;-51
2022/07/07 04:27:47;;;;;;;6.80;2.27;;;;;;;22.25;100.00;101787.66;5078327;28;19964;-51
2022/07/07 04:30:12;;;;;;;9.52;3.90;;;;;;;22.24;100.00;101780.53;5078894;28;20033;-51
2022/07/07 04:32:38;;;;;;;8.43;3.10;;;;;;;21.92;100.00;101782.84;5079503;28;20055;-48
2022/07/07 04:35:04;;;;;;;7.85;2.90;;;;;;;22.24;100.00;101786.00;5081114;28;20057;-50
2022/07/07 04:37:29;;;;;;;14.45;3.05;;;;;;;22.24;100.00;101786.81;5085898;28;20029;-47
2022/07/07 04:39:55;;;;;;;9.35;2.63;;;;;;;22.25;100.00;101783.00;5083377;28;20044;-51
2022/07/07 04:42:21;;;;;;;4.63;1.98;;;;;;;22.09;100.00;101781.97;5079478;28;20046;-51
2022/07/07 04:44:46;;;;;;;27.02;8.48;;;;;;;22.25;100.00;101793.09;5079672;28;20031;-52
2022/07/07 04:47:11;;;;;;;12.70;4.07;;;;;;;22.39;100.00;101802.56;5073713;28;20045;-47
2022/07/07 04:49:37;;;;;;;7.78;1.98;;;;;;;22.24;100.00;101799.63;5073046;28;21053;-52
2022/07/07 04:52:03;;;;;;;11.50;2.65;;;;;;;22.41;100.00;101805.84;5076830;28;20036;-49
2022/07/07 04:54:29;;;;;;;;;;;;;;;22.61;100.00;101809.97;5075327;28;20040;-49
2022/07/07 04:56:54;;;;;;;6.07;1.40;;;;;;;22.12;100.00;101816.06;5073753;28;19913;-52
2022/07/07 04:59:20;;;;;;;10.23;1.63;;;;;;;22.40;100.00;101815.13;5078394;28;20052;-49
2022/07/07 05:01:45;;;;;;;7.27;1.93;;;;;;;22.59;100.00;101817.53;5074959;28;20048;-50
2022/07/07 05:04:11;;;;;;;9.30;1.50;;;;;;;22.53;100.00;101821.28;5070596;28;20097;-51
2022/07/07 05:06:36;;;;;;;6.03;1.50;;;;;;;22.34;100.00;101822.38;5076981;28;20037;-48
2022/07/07 05:09:02;;;;;;;13.40;1.90;;;;;;;21.88;100.00;101817.06;5077985;28;20064;-47
2022/07/07 05:11:28;;;;;;;10.98;2.90;;;;;;;21.86;100.00;101832.81;5078408;28;20029;-47
2022/07/07 05:13:54;;;;;;;9.80;2.97;;;;;;;22.35;100.00;101828.63;5083493;28;20037;-49
2022/07/07 05:16:19;;;;;;;8.13;2.17;;;;;;;22.32;100.00;101834.59;5073431;28;20304;-50
2022/07/07 05:18:45;;;;;;;7.90;1.70;;;;;;;22.03;100.00;101823.84;5077153;28;20131;-50
2022/07/07 05:21:10;;;;;;;10.55;2.17;;;;;;;21.98;100.00;101824.56;5073259;28;20032;-51
2022/07/07 05:23:36;;;;;;;13.90;2.67;;;;;;;21.98;100.00;101837.38;5076609;28;20041;-51
2022/07/07 05:26:01;;;;;;;37.53;3.35;;;;;;;21.85;100.00;101842.06;5074201;28;20094;-49
2022/07/07 05:28:27;;;;;;;6.25;1.70;;;;;;;21.36;100.00;101842.56;5078993;28;20162;-49
2022/07/07 05:30:52;;;;;;;9.13;2.03;;;;;;;21.78;100.00;101855.03;5073755;28;20097;-51
2022/07/07 05:33:18;;;;;;;3.70;1.50;;;;;;;21.79;100.00;101859.41;5081662;28;20044;-49
2022/07/07 05:35:43;;;;;;;6.45;1.30;;;;;;;22.18;100.00;101856.75;5075345;28;20040;-49
2022/07/07 05:38:09;;;;;;;11.50;1.90;;;;;;;21.84;100.00;101867.66;5073444;28;20060;-53
2022/07/07 05:40:34;;;;;;;3.50;1.83;;;;;;;22.00;100.00;101862.47;5076599;28;20040;-47
2022/07/07 05:43:00;;;;;;;9.00;1.80;;;;;;;22.41;100.00;101870.41;5075459;28;20037;-49
2022/07/07 05:45:26;;;;;;;7.20;2.28;;;;;;;22.56;100.00;101875.28;5075837;28;20112;-48
2022/07/07 05:47:52;;;;;;;9.40;1.95;;;;;;;22.16;100.00;101894.31;5069688;28;20024;-50
2022/07/07 05:50:17;;;;;;;10.18;1.65;;;;;;;22.25;100.00;101885.72;5073149;28;20050;-48
2022/07/07 05:52:42;;;;;;;9.63;2.55;;;;;;;22.63;100.00;101884.94;5076822;28;20076;-53
2022/07/07 05:55:08;;;;;;;12.07;2.15;;;;;;;22.39;100.00;101887.03;5075763;28;20049;-46
2022/07/07 05:57:34;;;;;;;8.25;1.80;;;;;;;22.61;100.00;101889.81;5073165;28;20025;-49
2022/07/07 06:00:00;;;;;;;9.77;1.57;;;;;;;22.72;100.00;101903.56;5077498;28;20037;-49
2022/07/07 06:02:25;;;;;;;13.23;2.60;;;;;;;22.58;100.00;101903.13;5072906;28;20305;-49
2022/07/07 06:04:51;;;;;;;11.00;2.63;;;;;;;22.58;100.00;101898.50;5076629;28;20029;-49
2022/07/07 06:07:16;;;;;;;13.27;2.13;;;;;;;23.06;100.00;101915.22;5074197;28;20096;-50
2022/07/07 06:09:42;;;;;;;5.43;1.33;;;;;;;22.85;100.00;101919.59;5076580;28;20045;-51
2022/07/07 06:12:08;;;;;;;10.95;1.83;;;;;;;22.28;100.00;101916.03;5072197;28;20487;-47
2022/07/07 06:14:34;;;;;;;;;;;;;;;22.33;100.00;101909.81;5078319;28;20064;-50
2022/07/07 06:17:00;;;;;;;11.97;2.47;;;;;;;22.00;100.00;101908.75;5071669;28;19975;-47
2022/07/07 06:19:26;;;;;;;20.88;3.47;;;;;;;21.51;100.00;101923.66;5078147;28;20093;-52
2022/07/07 06:21:51;;;;;;;8.30;1.50;;;;;;;21.86;100.00;101932.75;5075848;28;20047;-51
2022/07/07 06:24:17;;;;;;;9.43;1.83;;;;;;;21.28;100.00;101930.84;5076499;28;20301;-47
2022/07/07 06:26:43;;;;;;;7.60;1.63;;;;;;;21.20;100.00;101928.47;5071769;28;20054;-50
2022/07/07 06:29:09;;;;;;;9.67;2.00;;;;;;;21.38;100.00;101929.38;5068124;28;20040;-47
2022/07/07 06:31:34;;;;;;;8.93;2.00;;;;;;;21.54;100.00;101938.66;5074364;28;20040;-48
2022/07/07 06:34:00;;;;;;;9.00;1.35;;;;;;;21.19;100.00;101935.81;5066150;28;20037;-52
2022/07/07 06:36:25;;;;;;;3.97;1.20;;;;;;;21.45;100.00;101952.66;5069653;28;20040;-51
2022/07/07 06:38:51;;;;;;;9.27;2.03;;;;;;;21.34;100.00;101957.06;5075355;28;20044;-49
2022/07/07 06:41:16;;;;;;;10.20;1.80;;;;;;;21.76;100.00;101960.63;5073030;28;20289;-48
2022/07/07 06:43:42;;;;;;;8.50;1.42;;;;;;;21.84;100.00;101962.13;5070278;28;20029;-52
2022/07/07 06:46:07;;;;;;;13.63;1.90;;;;;;;21.74;100.00;101971.75;5068731;28;20040;-51
2022/07/07 06:48:32;;;;;;;11.00;2.40;;;;;;;21.60;100.00;101964.94;5065304;28;20051;-53
2022/07/07 06:50:58;;;;;;;8.63;1.45;;;;;;;21.78;100.00;101958.47;5068034;28;20266;-51
2022/07/07 06:53:24;;;;;;;7.15;1.67;;;;;;;22.17;100.00;101965.97;5068202;28;20053;-49
2022/07/07 06:55:50;;;;;;;6.80;1.40;;;;;;;22.09;100.00;101969.91;5066061;28;20100;-51
2022/07/07 06:58:16;;;;;;;5.47;1.65;;;;;;;22.31;100.00;101961.00;5066291;28;20044;-53
2022/07/07 07:00:42;;;;;;;4.50;1.40;;;;;;;22.49;100.00;101970.88;5067292;28;20104;-50
2022/07/07 07:03:07;;;;;;;5.68;1.10;;;;;;;22.32;100.00;101968.09;5073457;28;20036;-53
2022/07/07 07:05:34;;;;;;;4.55;1.30;;;;;;;21.91;100.00;101982.69;5073190;28;20029;-48
2022/07/07 07:08:00;;;;;;;7.97;1.47;;;;;;;21.87;100.00;101981.50;5068452;28;20045;-49
2022/07/07 07:10:25;;;;;;;6.40;1.73;;;;;;;22.06;100.00;101984.03;5076248;28;20037;-52
2022/07/07 07:12:51;;;;;;;5.53;1.75;;;;;;;21.91;100.00;101982.69;5080951;28;20066;-49
2022/07/07 07:15:16;;;;;;;11.60;1.60;;;;;;;22.48;100.00;101991.00;5081499;28;20040;-48
2022/07/07 07:17:42;;;;;;;7.78;1.50;;;;;;;22.60;100.00;101999.09;5080640;28;20040;-51
2022/07/07 07:20:09;;;;;;;5.25;1.35;;;;;;;22.76;100.00;102008.38;5085321;28;20080;-48
2022/07/07 07:22:36;;;;;;;5.40;1.20;;;;;;;23.08;100.00;102012.38;5078294;28;20036;-46
2022/07/07 07:25:02;;;;;;;6.57;1.00;;;;;;;22.57;100.00;101999.59;5082295;28;20092;-48
2022/07/07 07:27:28;;;;;;;;;;;;;;;22.84;100.00;102026.22;5083354;28;20032;-49
2022/07/07 07:29:54;;;;;;;7.03;1.23;;;;;;;22.58;100.00;102013.00;5080396;28;19935;-49
2022/07/07 07:32:19;;;;;;;11.60;2.50;;;;;;;22.29;100.00;102015.78;5080279;28;20068;-51
2022/07/07 07:34:45;;;;;;;8.82;2.65;;;;;;;22.73;100.00;102020.59;5077355;28;20028;-48
2022/07/07 07:37:10;;;;;;;12.27;2.05;;;;;;;22.85;100.00;102016.94;5078214;28;20048;-49
2022/07/07 07:39:36;;;;;;;12.43;3.83;;;;;;;22.63;100.00;102025.88;5076627;28;20037;-52
2022/07/07 07:42:02;;;;;;;12.38;3.28;;;;;;;22.45;100.00;102019.56;5082104;28;20056;-48
2022/07/07 07:47:12;;;;;;;38.53;18.33;;;;;;;22.84;100.00;102015.31;5078353;28;19980;-51
2022/07/07 07:49:37;;;;;;;11.02;2.60;;;;;;;22.82;100.00;102018.25;5078332;28;20040;-51
2022/07/07 07:52:03;;;;;;;15.90;7.82;;;;;;;23.33;100.00;102029.09;5082670;28;20039;-48
2022/07/07 07:54:28;;;;;;;16.80;7.60;;;;;;;23.63;100.00;102027.81;5076946;28;20025;-52
2022/07/07 07:56:54;;;;;;;6.13;2.70;;;;;;;23.81;100.00;102031.31;5073033;28;20037;-47
2022/07/07 07:59:19;;;;;;;8.23;2.90;;;;;;;24.49;100.00;102035.50;5078375;28;20059;-48
2022/07/07 08:01:45;;;;;;;9.10;3.28;;;;;;;23.87;100.00;102024.81;5078802;28;20060;-50
2022/07/07 08:04:10;;;;;;;9.55;2.40;;;;;;;24.12;100.00;102017.97;5082457;28;20040;-47
2022/07/07 08:06:36;;;;;;;10.05;3.05;;;;;;;24.08;100.00;102033.25;5082936;28;20140;-46
2022/07/07 08:09:01;;;;;;;12.88;1.83;;;;;;;23.98;100.00;102033.94;5076420;28;20052;-50
2022/07/07 08:11:27;;;;;;;10.27;1.60;;;;;;;23.73;100.00;102027.13;5080037;28;20048;-50
2022/07/07 08:13:53;;;;;;;;;;;;;;;23.85;100.00;102034.31;5088531;28;20048;-52
2022/07/07 08:16:18;;;;;;;8.13;1.83;;;;;;;23.30;100.00;102032.34;5081865;28;19928;-48
2022/07/07 08:18:44;;;;;;;6.70;1.75;;;;;;;23.47;100.00;102045.09;5082176;28;20032;-48
2022/07/07 08:21:10;;;;;;;5.57;1.65;;;;;;;23.22;100.00;102053.75;5075314;28;20068;-49
2022/07/07 08:23:35;;;;;;;4.35;1.50;;;;;;;23.33;100.00;102033.72;5083045;28;20036;-47
2022/07/07 08:26:01;;;;;;;5.80;2.03;;;;;;;23.95;100.00;102052.75;5081294;28;20037;-48
2022/07/07 08:28:26;;;;;;;4.57;1.10;;;;;;;24.29;100.00;102044.38;5074949;28;20032;-50
2022/07/07 08:30:51;;;;;;;8.55;1.50;;;;;;;24.03;100.00;102049.59;5077276;28;20064;-51
2022/07/07 08:33:17;;;;;;;5.95;1.45;;;;;;;23.41;100.00;102054.31;5082410;28;20037;-53
2022/07/07 08:35:43;;;;;;;7.05;1.90;;;;;;;23.24;100.00;102046.13;5078283;28;20048;-51
2022/07/07 08:38:08;;;;;;;8.02;1.73;;;;;;;23.28;100.00;102052.75;5080223;28;20041;-53
2022/07/07 08:40:34;;;;;;;6.13;1.60;;;;;;;23.17;100.00;102057.22;5088226;28;20111;-53
2022/07/07 08:43:00;;;;;;;5.65;1.35;;;;;;;23.08;100.00;102066.94;5088722;28;20082;-48
2022/07/07 08:45:25;;;;;;;4.93;1.20;;;;;;;23.08;100.00;102065.00;5084380;28;20101;-49
2022/07/07 08:47:51;;;;;;;11.40;1.05;;;;;;;23.06;100.00;102069.88;5077061;28;20025;-53
2022/07/07 08:50:17;;;;;;;5.18;0.90;;;;;;;23.43;100.00;102066.63;5079882;28;20040;-48
2022/07/07 08:52:45;;;;;;;6.70;1.50;;;;;;;24.02;100.00;102073.34;5078894;28;20032;-52
2022/07/07 08:55:15;;;;;;;7.60;1.63;;;;;;;24.64;100.00;102081.28;5089513;28;20097;-49
2022/07/07 08:57:42;;;;;;;7.10;1.50;;;;;;;24.59;100.00;102073.06;5081270;28;20040;-51
2022/07/07 09:00:08;;;;;;;5.97;1.17;;;;;;;24.71;100.00;102078.34;5081744;28;20059;-49
2022/07/07 09:02:34;;;;;;;3.93;1.07;;;;;;;24.58;100.00;102085.09;5086608;28;20039;-50
2022/07/07 09:04:59;;;;;;;4.28;1.10;;;;;;;24.07;100.00;102091.72;5077365;28;20032;-53
2022/07/07 09:07:43;;;;;;;4.63;1.05;;;;;;;24.08;100.00;102087.91;5078540;28;20037;-50
2022/07/07 09:10:09;;;;;;;12.93;1.73;;;;;;;24.59;100.00;102086.72;5077780;28;20070;-52
2022/07/07 09:12:35;;;;;;;3.45;1.17;;;;;;;24.84;100.00;102090.78;5081776;28;20029;-51
2022/07/07 09:15:04;;;;;;;5.68;1.48;;;;;;;25.13;100.00;102084.97;5083962;28;20036;-48
2022/07/07 09:17:33;;;;;;;7.00;1.57;;;;;;;25.59;100.00;102101.66;5078967;28;20032;-50
2022/07/07 09:20:00;;;;;;;4.77;1.00;;;;;;;25.16;100.00;102092.66;5077454;28;20033;-53
2022/07/07 09:22:46;;;;;;;3.40;1.07;;;;;;;25.60;100.00;102091.53;5080918;28;20052;-52
2022/07/07 09:25:13;;;;;;;2.37;0.80;;;;;;;25.33;100.00;102106.97;5069962;28;20067;-49
2022/07/07 09:27:59;;;;;;;8.13;1.40;;;;;;;24.99;100.00;102101.84;5077021;28;20083;-50
2022/07/07 09:30:26;;;;;;;2.87;1.20;;;;;;;24.46;100.00;102126.25;5077320;28;20055;-52
2022/07/07 09:32:52;;;;;;;5.43;1.10;;;;;;;23.71;100.00;102121.28;5076236;28;20039;-52
2022/07/07 09:38:14;;;;;;;1.67;0.80;;;;;;;23.68;100.00;102124.53;5074277;28;20055;-50
2022/07/07 09:41:12;;;;;;;3.33;0.80;;;;;;;24.53;100.00;102139.72;5072070;28;20051;-49
2022/07/07 09:43:52;;;;;;;4.70;0.67;;;;;;;25.39;100.00;102135.22;5076280;28;20036;-47
2022/07/07 09:46:23;;;;;;;2.90;1.17;;;;;;;25.35;100.00;102145.06;5072800;28;20025;-50
2022/07/07 09:48:50;;;;;;;6.13;0.60;;;;;;;25.79;100.00;102140.38;5074459;28;20092;-51
2022/07/07 09:51:24;;;;;;;2.30;0.80;;;;;;;26.45;100.00;102142.50;5073928;28;20036;-51
2022/07/07 09:53:52;;;;;;;3.13;1.10;;;;;;;25.50;100.00;102147.09;5076847;28;20025;-48
2022/07/07 09:56:23;;;;;;;1.43;0.47;;;;;;;26.24;100.00;102152.63;5073628;28;20047;-49
2022/07/07 09:58:49;;;;;;;3.83;0.63;;;;;;;25.60;100.00;102141.69;5085360;28;20032;-49
2022/07/07 10:01:17;;;;;;;1.50;0.70;;;;;;;25.48;100.00;102160.22;5080452;28;20036;-51
2022/07/07 10:03:43;;;;;;;5.47;1.20;;;;;;;24.94;100.00;102159.28;5073445;28;20044;-50
2022/07/07 10:06:10;;;;;;;3.70;0.75;;;;;;;24.24;100.00;102161.84;5075940;28;20096;-50
2022/07/07 10:08:42;;;;;;;2.50;0.97;;;;;;;24.14;100.00;102160.63;5077081;28;20037;-49
2022/07/07 10:11:12;;;;;;;1.60;0.73;;;;;;;24.27;100.00;102173.09;5086087;28;20039;-48
2022/07/07 10:13:43;;;;;;;4.60;0.80;;;;;;;24.59;100.00;102179.69;5075962;28;20085;-49
2022/07/07 10:16:10;;;;;;;3.63;0.80;;;;;;;24.61;100.00;102177.53;5073704;28;20037;-50
2022/07/07 10:18:35;;;;;;;;;;;;;;;24.88;100.00;102190.41;5070530;28;20085;-52
2022/07/07 10:21:03;;;;;;;1.57;0.50;;;;;;;25.52;100.00;102193.38;5073542;28;19995;-47
2022/07/07 10:23:32;;;;;;;1.03;0.60;;;;;;;25.99;100.00;102189.78;5071119;28;20033;-48
2022/07/07 10:26:02;;;;;;;3.97;1.10;;;;;;;25.92;100.00;102203.72;5077220;28;20081;-47
2022/07/07 10:28:50;;;;;;;2.57;1.50;;;;;;;25.62;100.00;102204.41;5077488;28;20040;-50
2022/07/07 10:31:23;;;;;;;2.43;0.70;;;;;;;25.10;100.00;102228.63;5071701;28;20082;-53
2022/07/07 10:34:10;;;;;;;2.20;0.70;;;;;;;24.47;100.00;102220.88;5074326;28;20029;-48
2022/07/07 10:36:50;;;;;;;2.70;0.70;;;;;;;24.27;100.00;102216.00;5071721;28;20100;-49
2022/07/07 10:39:23;;;;;;;2.70;1.27;;;;;;;24.69;100.00;102223.59;5083177;28;20040;-49
2022/07/07 10:42:16;;;;;;;6.67;0.90;;;;;;;25.46;100.00;102209.72;5074301;28;20064;-51
2022/07/07 10:44:48;;;;;;;3.70;0.90;;;;;;;26.47;100.00;102227.28;5083227;28;20057;-49
2022/07/07 10:47:17;;;;;;;3.10;0.93;;;;;;;27.93;100.00;102223.41;5072136;28;20064;-50
2022/07/07 10:49:53;;;;;;;5.63;0.90;;;;;;;27.38;100.00;102235.06;5080876;28;20113;-52
2022/07/07 10:52:20;;;;;;;5.03;1.02;;;;;;;26.94;100.00;102227.38;5082335;28;20024;-50
2022/07/07 10:55:00;;;;;;;7.03;1.47;;;;;;;26.10;100.00;102245.47;5075773;28;20041;-54
2022/07/07 10:57:27;;;;;;;3.63;1.13;;;;;;;25.43;100.00;102254.06;5076367;28;20036;-50
2022/07/07 10:59:56;;;;;;;3.17;1.33;;;;;;;24.75;100.00;102252.66;5076824;28;20045;-50
2022/07/07 11:02:32;;;;;;;5.07;0.93;;;;;;;24.48;100.00;102260.81;5072549;28;20033;-46
2022/07/07 11:04:59;;;;;;;4.45;1.20;;;;;;;24.68;100.00;102264.84;5069933;28;20102;-52
2022/07/07 11:07:29;;;;;;;5.67;1.37;;;;;;;24.33;100.00;102262.25;5075241;28;20036;-51
2022/07/07 11:10:05;;;;;;;4.33;1.13;;;;;;;24.33;100.00;102270.47;5075839;28;20029;-50
2022/07/07 11:12:44;;;;;;;5.67;1.40;;;;;;;24.82;100.00;102277.09;5079500;28;20028;-52
2022/07/07 11:15:15;;;;;;;3.60;1.27;;;;;;;25.38;100.00;102283.34;5070576;28;20033;-52
2022/07/07 11:17:44;;;;;;;3.23;1.17;;;;;;;25.49;100.00;102282.38;5072805;28;20040;-51
2022/07/07 11:20:13;;;;;;;4.03;1.43;;;;;;;25.86;100.00;102281.53;5073338;28;20057;-48
2022/07/07 11:22:44;;;;;;;7.07;1.00;;;;;;;26.01;100.00;102279.97;5074956;28;20059;-50